sensor_id;sensor_type;location;lat;lon;timestamp;pressure;altitude;pressure_sealevel;temperature
60731;BMP280;46580;52.114;11.674;2024-03-17T00:00:42;-19363.66;;;5.46
60731;BMP280;46580;52.114;11.674;2024-03-17T00:03:08;-19361.50;;;5.38
60731;BMP280;46580;52.114;11.674;2024-03-17T00:05:35;-19362.06;;;5.40
60731;BMP280;46580;52.114;11.674;2024-03-17T00:08:01;-19363.06;;;5.44
60731;BMP280;46580;52.114;11.674;2024-03-17T00:10:30;-19362.50;;;5.42
60731;BMP280;46580;52.114;11.674;2024-03-17T00:12:59;-19361.94;;;5.40
60731;BMP280;46580;52.114;11.674;2024-03-17T00:15:28;-19359.63;;;5.32
60731;BMP280;46580;52.114;11.674;2024-03-17T00:17:59;-19359.91;;;5.33
60731;BMP280;46580;52.114;11.674;2024-03-17T00:20:25;-19357.91;;;5.26
60731;BMP280;46580;52.114;11.674;2024-03-17T00:22:50;-19358.06;;;5.27
60731;BMP280;46580;52.114;11.674;2024-03-17T00:25:20;-19359.19;;;5.31
60731;BMP280;46580;52.114;11.674;2024-03-17T00:27:47;-19359.06;;;5.30
60731;BMP280;46580;52.114;11.674;2024-03-17T00:30:13;-19359.91;;;5.33
60731;BMP280;46580;52.114;11.674;2024-03-17T00:32:39;-19359.63;;;5.32
60731;BMP280;46580;52.114;11.674;2024-03-17T00:35:09;-19360.50;;;5.35
60731;BMP280;46580;52.114;11.674;2024-03-17T00:37:35;-19360.91;;;5.37
60731;BMP280;46580;52.114;11.674;2024-03-17T00:40:01;-19361.06;;;5.37
60731;BMP280;46580;52.114;11.674;2024-03-17T00:42:27;-19360.63;;;5.36
60731;BMP280;46580;52.114;11.674;2024-03-17T00:44:52;-19361.78;;;5.39
60731;BMP280;46580;52.114;11.674;2024-03-17T00:47:18;-19360.78;;;5.36
60731;BMP280;46580;52.114;11.674;2024-03-17T00:49:43;-19362.34;;;5.41
60731;BMP280;46580;52.114;11.674;2024-03-17T00:52:09;-19361.94;;;5.40
60731;BMP280;46580;52.114;11.674;2024-03-17T00:54:34;-19360.63;;;5.36
60731;BMP280;46580;52.114;11.674;2024-03-17T00:57:00;-19360.91;;;5.37
60731;BMP280;46580;52.114;11.674;2024-03-17T00:59:27;-19361.06;;;5.37
60731;BMP280;46580;52.114;11.674;2024-03-17T01:01:53;-19360.50;;;5.35
60731;BMP280;46580;52.114;11.674;2024-03-17T01:04:18;-19360.06;;;5.34
60731;BMP280;46580;52.114;11.674;2024-03-17T01:06:43;-19360.50;;;5.35
60731;BMP280;46580;52.114;11.674;2024-03-17T01:09:09;-19361.50;;;5.38
60731;BMP280;46580;52.114;11.674;2024-03-17T01:11:34;-19361.06;;;5.37
60731;BMP280;46580;52.114;11.674;2024-03-17T01:14:00;-19361.34;;;5.38
60731;BMP280;46580;52.114;11.674;2024-03-17T01:16:25;-19359.91;;;5.33
60731;BMP280;46580;52.114;11.674;2024-03-17T01:18:51;-19361.22;;;5.38
60731;BMP280;46580;52.114;11.674;2024-03-17T01:21:16;-19360.34;;;5.35
60731;BMP280;46580;52.114;11.674;2024-03-17T01:23:42;-19359.06;;;5.30
60731;BMP280;46580;52.114;11.674;2024-03-17T01:26:07;-19357.47;;;5.25
60731;BMP280;46580;52.114;11.674;2024-03-17T01:28:32;-19355.91;;;5.19
60731;BMP280;46580;52.114;11.674;2024-03-17T01:30:58;-19356.47;;;5.21
60731;BMP280;46580;52.114;11.674;2024-03-17T01:33:23;-19356.47;;;5.21
60731;BMP280;46580;52.114;11.674;2024-03-17T01:35:49;-19354.75;;;5.16
60731;BMP280;46580;52.114;11.674;2024-03-17T01:38:14;-19353.03;;;5.10
60731;BMP280;46580;52.114;11.674;2024-03-17T01:40:39;-19351.59;;;5.05
60731;BMP280;46580;52.114;11.674;2024-03-17T01:43:09;-19351.59;;;5.05
60731;BMP280;46580;52.114;11.674;2024-03-17T01:45:35;-19349.00;;;4.96
60731;BMP280;46580;52.114;11.674;2024-03-17T01:48:02;-19349.88;;;4.99
60731;BMP280;46580;52.114;11.674;2024-03-17T01:50:34;-19348.56;;;4.95
60731;BMP280;46580;52.114;11.674;2024-03-17T01:53:02;-19348.00;;;4.93
60731;BMP280;46580;52.114;11.674;2024-03-17T01:55:32;-19347.16;;;4.90
60731;BMP280;46580;52.114;11.674;2024-03-17T01:58:05;-19347.28;;;4.90
60731;BMP280;46580;52.114;11.674;2024-03-17T02:00:35;-19346.00;;;4.86
60731;BMP280;46580;52.114;11.674;2024-03-17T02:03:08;-19346.84;;;4.89
60731;BMP280;46580;52.114;11.674;2024-03-17T02:05:36;-19345.72;;;4.85
60731;BMP280;46580;52.114;11.674;2024-03-17T02:08:04;-19346.28;;;4.87
60731;BMP280;46580;52.114;11.674;2024-03-17T02:10:30;-19345.00;;;4.82
60731;BMP280;46580;52.114;11.674;2024-03-17T02:12:55;-19345.28;;;4.83
60731;BMP280;46580;52.114;11.674;2024-03-17T02:15:21;-19344.41;;;4.81
60731;BMP280;46580;52.114;11.674;2024-03-17T02:17:46;-19344.41;;;4.81
60731;BMP280;46580;52.114;11.674;2024-03-17T02:20:12;-19343.56;;;4.78
60731;BMP280;46580;52.114;11.674;2024-03-17T02:22:39;-19343.41;;;4.77
60731;BMP280;46580;52.114;11.674;2024-03-17T02:25:05;-19343.84;;;4.79
60731;BMP280;46580;52.114;11.674;2024-03-17T02:27:36;-19343.56;;;4.78
60731;BMP280;46580;52.114;11.674;2024-03-17T02:30:03;-19343.97;;;4.79
60731;BMP280;46580;52.114;11.674;2024-03-17T02:32:32;-19344.41;;;4.81
60731;BMP280;46580;52.114;11.674;2024-03-17T02:34:59;-19343.13;;;4.76
60731;BMP280;46580;52.114;11.674;2024-03-17T02:37:26;-19342.25;;;4.73
60731;BMP280;46580;52.114;11.674;2024-03-17T02:39:52;-19342.97;;;4.76
60731;BMP280;46580;52.114;11.674;2024-03-17T02:42:18;-19343.41;;;4.77
60731;BMP280;46580;52.114;11.674;2024-03-17T02:44:44;-19341.81;;;4.72
60731;BMP280;46580;52.114;11.674;2024-03-17T02:47:09;-19342.13;;;4.73
60731;BMP280;46580;52.114;11.674;2024-03-17T02:49:35;-19340.97;;;4.69
60731;BMP280;46580;52.114;11.674;2024-03-17T02:52:10;-19340.09;;;4.66
60731;BMP280;46580;52.114;11.674;2024-03-17T02:54:39;-19339.81;;;4.65
60731;BMP280;46580;52.114;11.674;2024-03-17T02:57:06;-19338.97;;;4.62
60731;BMP280;46580;52.114;11.674;2024-03-17T02:59:34;-19338.38;;;4.60
60731;BMP280;46580;52.114;11.674;2024-03-17T03:02:00;-19340.25;;;4.66
60731;BMP280;46580;52.114;11.674;2024-03-17T03:04:26;-19339.81;;;4.65
60731;BMP280;46580;52.114;11.674;2024-03-17T03:06:51;-19339.81;;;4.65
60731;BMP280;46580;52.114;11.674;2024-03-17T03:09:17;-19337.81;;;4.58
60731;BMP280;46580;52.114;11.674;2024-03-17T03:11:50;-19337.81;;;4.58
60731;BMP280;46580;52.114;11.674;2024-03-17T03:14:17;-19335.50;;;4.50
60731;BMP280;46580;52.114;11.674;2024-03-17T03:16:42;-19333.78;;;4.45
60731;BMP280;46580;52.114;11.674;2024-03-17T03:19:07;-19332.50;;;4.40
60731;BMP280;46580;52.114;11.674;2024-03-17T03:21:33;-19331.22;;;4.36
60731;BMP280;46580;52.114;11.674;2024-03-17T03:23:58;-19330.06;;;4.32
60731;BMP280;46580;52.114;11.674;2024-03-17T03:26:23;-19331.50;;;4.37
60731;BMP280;46580;52.114;11.674;2024-03-17T03:28:50;-19331.22;;;4.36
60731;BMP280;46580;52.114;11.674;2024-03-17T03:31:15;-19329.91;;;4.31
60731;BMP280;46580;52.114;11.674;2024-03-17T03:33:41;-19330.50;;;4.33
60731;BMP280;46580;52.114;11.674;2024-03-17T03:36:14;-19330.06;;;4.32
60731;BMP280;46580;52.114;11.674;2024-03-17T03:38:41;-19330.06;;;4.32
60731;BMP280;46580;52.114;11.674;2024-03-17T03:41:12;-19329.19;;;4.29
60731;BMP280;46580;52.114;11.674;2024-03-17T03:43:38;-19328.75;;;4.27
60731;BMP280;46580;52.114;11.674;2024-03-17T03:46:03;-19328.91;;;4.28
60731;BMP280;46580;52.114;11.674;2024-03-17T03:48:30;-19329.34;;;4.29
60731;BMP280;46580;52.114;11.674;2024-03-17T03:50:55;-19328.34;;;4.26
60731;BMP280;46580;52.114;11.674;2024-03-17T03:53:21;-19328.63;;;4.27
60731;BMP280;46580;52.114;11.674;2024-03-17T03:55:46;-19327.31;;;4.23
60731;BMP280;46580;52.114;11.674;2024-03-17T03:58:12;-19327.75;;;4.24
60731;BMP280;46580;52.114;11.674;2024-03-17T04:00:38;-19328.75;;;4.27
60731;BMP280;46580;52.114;11.674;2024-03-17T04:03:07;-19328.91;;;4.28
60731;BMP280;46580;52.114;11.674;2024-03-17T04:05:33;-19327.75;;;4.24
60731;BMP280;46580;52.114;11.674;2024-03-17T04:08:00;-19328.03;;;4.25
60731;BMP280;46580;52.114;11.674;2024-03-17T04:10:25;-19327.47;;;4.23
60731;BMP280;46580;52.114;11.674;2024-03-17T04:12:51;-19325.47;;;4.16
60731;BMP280;46580;52.114;11.674;2024-03-17T04:15:17;-19325.75;;;4.17
60731;BMP280;46580;52.114;11.674;2024-03-17T04:17:43;-19323.75;;;4.10
60731;BMP280;46580;52.114;11.674;2024-03-17T04:20:09;-19321.72;;;4.04
60731;BMP280;46580;52.114;11.674;2024-03-17T04:22:38;-19319.00;;;3.94
60731;BMP280;46580;52.114;11.674;2024-03-17T04:25:04;-19318.00;;;3.91
60731;BMP280;46580;52.114;11.674;2024-03-17T04:27:30;-19320.28;;;3.99
60731;BMP280;46580;52.114;11.674;2024-03-17T04:29:59;-19320.88;;;4.01
60731;BMP280;46580;52.114;11.674;2024-03-17T04:32:25;-19321.16;;;4.02
60731;BMP280;46580;52.114;11.674;2024-03-17T04:34:53;-19321.16;;;4.02
60731;BMP280;46580;52.114;11.674;2024-03-17T04:37:19;-19320.28;;;3.99
60731;BMP280;46580;52.114;11.674;2024-03-17T04:39:45;-19319.72;;;3.97
60731;BMP280;46580;52.114;11.674;2024-03-17T04:42:12;-19317.41;;;3.89
60731;BMP280;46580;52.114;11.674;2024-03-17T04:44:39;-19315.69;;;3.83
60731;BMP280;46580;52.114;11.674;2024-03-17T04:47:05;-19314.69;;;3.80
60731;BMP280;46580;52.114;11.674;2024-03-17T04:52:00;-19313.41;;;3.75
60731;BMP280;46580;52.114;11.674;2024-03-17T04:54:26;-19315.25;;;3.82
60731;BMP280;46580;52.114;11.674;2024-03-17T04:56:51;-19315.84;;;3.84
60731;BMP280;46580;52.114;11.674;2024-03-17T04:59:17;-19313.69;;;3.76
60731;BMP280;46580;52.114;11.674;2024-03-17T05:01:42;-19311.38;;;3.69
60731;BMP280;46580;52.114;11.674;2024-03-17T05:04:08;-19311.09;;;3.68
60731;BMP280;46580;52.114;11.674;2024-03-17T05:06:35;-19309.81;;;3.63
60731;BMP280;46580;52.114;11.674;2024-03-17T05:09:01;-19310.38;;;3.65
60731;BMP280;46580;52.114;11.674;2024-03-17T05:11:26;-19309.66;;;3.63
60731;BMP280;46580;52.114;11.674;2024-03-17T05:13:52;-19311.38;;;3.69
60731;BMP280;46580;52.114;11.674;2024-03-17T05:16:17;-19309.94;;;3.64
60731;BMP280;46580;52.114;11.674;2024-03-17T05:18:42;-19307.38;;;3.55
60731;BMP280;46580;52.114;11.674;2024-03-17T05:21:08;-19305.78;;;3.50
60731;BMP280;46580;52.114;11.674;2024-03-17T05:23:35;-19305.34;;;3.48
60731;BMP280;46580;52.114;11.674;2024-03-17T05:26:01;-19308.22;;;3.58
60731;BMP280;46580;52.114;11.674;2024-03-17T05:28:28;-19310.66;;;3.66
60731;BMP280;46580;52.114;11.674;2024-03-17T05:30:54;-19310.22;;;3.65
60731;BMP280;46580;52.114;11.674;2024-03-17T05:33:22;-19310.09;;;3.64
60731;BMP280;46580;52.114;11.674;2024-03-17T05:35:56;-19310.81;;;3.67
60731;BMP280;46580;52.114;11.674;2024-03-17T05:38:25;-19309.38;;;3.62
60731;BMP280;46580;52.114;11.674;2024-03-17T05:40:58;-19309.94;;;3.64
60731;BMP280;46580;52.114;11.674;2024-03-17T05:43:27;-19309.94;;;3.64
60731;BMP280;46580;52.114;11.674;2024-03-17T05:45:53;-19311.25;;;3.68
60731;BMP280;46580;52.114;11.674;2024-03-17T05:48:19;-19311.81;;;3.70
60731;BMP280;46580;52.114;11.674;2024-03-17T05:50:45;-19312.09;;;3.71
60731;BMP280;46580;52.114;11.674;2024-03-17T05:53:14;-19313.69;;;3.76
60731;BMP280;46580;52.114;11.674;2024-03-17T05:55:40;-19315.41;;;3.82
60731;BMP280;46580;52.114;11.674;2024-03-17T05:58:09;-19316.56;;;3.86
60731;BMP280;46580;52.114;11.674;2024-03-17T06:00:38;-19318.28;;;3.92
60731;BMP280;46580;52.114;11.674;2024-03-17T06:03:05;-19321.44;;;4.03
60731;BMP280;46580;52.114;11.674;2024-03-17T06:05:39;-19323.75;;;4.10
60731;BMP280;46580;52.114;11.674;2024-03-17T06:08:08;-19325.75;;;4.17
60731;BMP280;46580;52.114;11.674;2024-03-17T06:10:35;-19327.75;;;4.24
60731;BMP280;46580;52.114;11.674;2024-03-17T06:13:02;-19328.47;;;4.26
60731;BMP280;46580;52.114;11.674;2024-03-17T06:15:27;-19330.63;;;4.34
60731;BMP280;46580;52.114;11.674;2024-03-17T06:17:53;-19332.22;;;4.39
60731;BMP280;46580;52.114;11.674;2024-03-17T06:20:19;-19332.78;;;4.41
60731;BMP280;46580;52.114;11.674;2024-03-17T06:22:45;-19334.06;;;4.45
60731;BMP280;46580;52.114;11.674;2024-03-17T06:25:11;-19334.94;;;4.48
60731;BMP280;46580;52.114;11.674;2024-03-17T06:27:38;-19336.38;;;4.53
60731;BMP280;46580;52.114;11.674;2024-03-17T06:30:04;-19337.53;;;4.57
60731;BMP280;46580;52.114;11.674;2024-03-17T06:32:30;-19339.81;;;4.65
60731;BMP280;46580;52.114;11.674;2024-03-17T06:35:02;-19340.25;;;4.66
60731;BMP280;46580;52.114;11.674;2024-03-17T06:37:27;-19342.13;;;4.73
60731;BMP280;46580;52.114;11.674;2024-03-17T06:39:52;-19344.41;;;4.81
60731;BMP280;46580;52.114;11.674;2024-03-17T06:42:18;-19345.84;;;4.85
60731;BMP280;46580;52.114;11.674;2024-03-17T06:44:44;-19346.44;;;4.87
60731;BMP280;46580;52.114;11.674;2024-03-17T06:47:10;-19348.44;;;4.94
60731;BMP280;46580;52.114;11.674;2024-03-17T06:49:36;-19350.16;;;5.00
60731;BMP280;46580;52.114;11.674;2024-03-17T06:52:02;-19350.88;;;5.02
60731;BMP280;46580;52.114;11.674;2024-03-17T06:54:27;-19353.31;;;5.11
60731;BMP280;46580;52.114;11.674;2024-03-17T06:56:53;-19354.59;;;5.15
60731;BMP280;46580;52.114;11.674;2024-03-17T06:59:21;-19357.03;;;5.23
60731;BMP280;46580;52.114;11.674;2024-03-17T07:01:46;-19358.91;;;5.30
60731;BMP280;46580;52.114;11.674;2024-03-17T07:04:13;-19360.34;;;5.35
60731;BMP280;46580;52.114;11.674;2024-03-17T07:06:38;-19362.22;;;5.41
60731;BMP280;46580;52.114;11.674;2024-03-17T07:09:03;-19363.38;;;5.45
60731;BMP280;46580;52.114;11.674;2024-03-17T07:11:29;-19365.66;;;5.53
60731;BMP280;46580;52.114;11.674;2024-03-17T07:13:54;-19367.94;;;5.60
60731;BMP280;46580;52.114;11.674;2024-03-17T07:16:20;-19368.53;;;5.62
60731;BMP280;46580;52.114;11.674;2024-03-17T07:18:51;-19371.13;;;5.71
60731;BMP280;46580;52.114;11.674;2024-03-17T07:21:22;-19373.56;;;5.79
60731;BMP280;46580;52.114;11.674;2024-03-17T07:23:47;-19374.56;;;5.83
60731;BMP280;46580;52.114;11.674;2024-03-17T07:26:18;-19376.84;;;5.91
60731;BMP280;46580;52.114;11.674;2024-03-17T07:28:44;-19376.56;;;5.90
60731;BMP280;46580;52.114;11.674;2024-03-17T07:31:10;-19379.00;;;5.98
60731;BMP280;46580;52.114;11.674;2024-03-17T07:33:35;-19380.31;;;6.02
60731;BMP280;46580;52.114;11.674;2024-03-17T07:36:01;-19384.47;;;6.16
60731;BMP280;46580;52.114;11.674;2024-03-17T07:38:28;-19384.31;;;6.16
60731;BMP280;46580;52.114;11.674;2024-03-17T07:41:05;-19385.19;;;6.19
60731;BMP280;46580;52.114;11.674;2024-03-17T07:43:33;-19390.91;;;6.38
60731;BMP280;46580;52.114;11.674;2024-03-17T07:46:03;-19391.78;;;6.41
60731;BMP280;46580;52.114;11.674;2024-03-17T07:48:30;-19388.03;;;6.29
60731;BMP280;46580;52.114;11.674;2024-03-17T07:51:03;-19387.91;;;6.28
60731;BMP280;46580;52.114;11.674;2024-03-17T07:53:33;-19386.91;;;6.25
60731;BMP280;46580;52.114;11.674;2024-03-17T07:56:10;-19387.63;;;6.27
60731;BMP280;46580;52.114;11.674;2024-03-17T07:58:37;-19389.19;;;6.32
60731;BMP280;46580;52.114;11.674;2024-03-17T08:01:07;-19397.66;;;6.61
60731;BMP280;46580;52.114;11.674;2024-03-17T08:03:35;-19400.09;;;6.69
60731;BMP280;46580;52.114;11.674;2024-03-17T08:06:02;-19403.38;;;6.81
60731;BMP280;46580;52.114;11.674;2024-03-17T08:08:28;-19400.81;;;6.72
60731;BMP280;46580;52.114;11.674;2024-03-17T08:10:54;-19404.69;;;6.85
60731;BMP280;46580;52.114;11.674;2024-03-17T08:13:21;-19408.69;;;6.99
60731;BMP280;46580;52.114;11.674;2024-03-17T08:15:55;-19403.69;;;6.82
60731;BMP280;46580;52.114;11.674;2024-03-17T08:18:21;-19403.53;;;6.81
60731;BMP280;46580;52.114;11.674;2024-03-17T08:20:48;-19411.41;;;7.08
60731;BMP280;46580;52.114;11.674;2024-03-17T08:23:13;-19408.69;;;6.99
60731;BMP280;46580;52.114;11.674;2024-03-17T08:25:39;-19406.69;;;6.92
60731;BMP280;46580;52.114;11.674;2024-03-17T08:28:05;-19405.53;;;6.88
60731;BMP280;46580;52.114;11.674;2024-03-17T08:30:30;-19411.13;;;7.07
60731;BMP280;46580;52.114;11.674;2024-03-17T08:32:58;-19418.44;;;7.32
60731;BMP280;46580;52.114;11.674;2024-03-17T08:35:24;-19420.75;;;7.40
60731;BMP280;46580;52.114;11.674;2024-03-17T08:37:54;-19422.16;;;7.44
60731;BMP280;46580;52.114;11.674;2024-03-17T08:40:20;-19428.06;;;7.64
60731;BMP280;46580;52.114;11.674;2024-03-17T08:42:47;-19431.06;;;7.75
60731;BMP280;46580;52.114;11.674;2024-03-17T08:45:12;-19434.50;;;7.86
60731;BMP280;46580;52.114;11.674;2024-03-17T08:47:38;-19432.22;;;7.79
60731;BMP280;46580;52.114;11.674;2024-03-17T08:50:04;-19429.19;;;7.68
60731;BMP280;46580;52.114;11.674;2024-03-17T08:52:30;-19431.50;;;7.76
60731;BMP280;46580;52.114;11.674;2024-03-17T08:54:58;-19435.94;;;7.91
60731;BMP280;46580;52.114;11.674;2024-03-17T08:57:24;-19437.66;;;7.97
60731;BMP280;46580;52.114;11.674;2024-03-17T08:59:50;-19435.34;;;7.89
60731;BMP280;46580;52.114;11.674;2024-03-17T09:02:18;-19430.19;;;7.72
60731;BMP280;46580;52.114;11.674;2024-03-17T09:04:45;-19425.63;;;7.56
60731;BMP280;46580;52.114;11.674;2024-03-17T09:07:10;-19427.06;;;7.61
60731;BMP280;46580;52.114;11.674;2024-03-17T09:09:36;-19429.63;;;7.70
60731;BMP280;46580;52.114;11.674;2024-03-17T09:12:01;-19434.06;;;7.85
60731;BMP280;46580;52.114;11.674;2024-03-17T09:14:29;-19434.78;;;7.87
60731;BMP280;46580;52.114;11.674;2024-03-17T09:16:54;-19439.09;;;8.02
60731;BMP280;46580;52.114;11.674;2024-03-17T09:19:20;-19442.53;;;8.14
60731;BMP280;46580;52.114;11.674;2024-03-17T09:21:46;-19444.25;;;8.19
60731;BMP280;46580;52.114;11.674;2024-03-17T09:24:11;-19444.97;;;8.22
60731;BMP280;46580;52.114;11.674;2024-03-17T09:26:36;-19446.53;;;8.27
60731;BMP280;46580;52.114;11.674;2024-03-17T09:29:05;-19452.97;;;8.49
60731;BMP280;46580;52.114;11.674;2024-03-17T09:31:30;-19451.13;;;8.43
60731;BMP280;46580;52.114;11.674;2024-03-17T09:33:59;-19453.13;;;8.50
60731;BMP280;46580;52.114;11.674;2024-03-17T09:36:30;-19452.13;;;8.46
60731;BMP280;46580;52.114;11.674;2024-03-17T09:38:56;-19455.13;;;8.56
60731;BMP280;46580;52.114;11.674;2024-03-17T09:41:23;-19465.59;;;8.92
60731;BMP280;46580;52.114;11.674;2024-03-17T09:43:54;-19466.59;;;8.95
60731;BMP280;46580;52.114;11.674;2024-03-17T09:46:25;-19473.75;;;9.20
60731;BMP280;46580;52.114;11.674;2024-03-17T09:48:57;-19472.31;;;9.15
60731;BMP280;46580;52.114;11.674;2024-03-17T09:51:24;-19469.47;;;9.05
60731;BMP280;46580;52.114;11.674;2024-03-17T09:53:51;-19469.75;;;9.06
60731;BMP280;46580;52.114;11.674;2024-03-17T09:56:19;-19477.34;;;9.32
60731;BMP280;46580;52.114;11.674;2024-03-17T09:58:48;-19477.03;;;9.31
60731;BMP280;46580;52.114;11.674;2024-03-17T10:01:14;-19476.03;;;9.28
60731;BMP280;46580;52.114;11.674;2024-03-17T10:06:10;-19486.94;;;9.65
60731;BMP280;46580;52.114;11.674;2024-03-17T10:08:47;-19488.63;;;9.70
60731;BMP280;46580;52.114;11.674;2024-03-17T10:11:15;-19484.34;;;9.56
60731;BMP280;46580;52.114;11.674;2024-03-17T10:13:42;-19483.78;;;9.54
60731;BMP280;46580;52.114;11.674;2024-03-17T10:16:21;-19480.50;;;9.43
60731;BMP280;46580;52.114;11.674;2024-03-17T10:18:48;-19481.50;;;9.46
60731;BMP280;46580;52.114;11.674;2024-03-17T10:21:31;-19473.75;;;9.20
60731;BMP280;46580;52.114;11.674;2024-03-17T10:24:09;-19472.63;;;9.16
60731;BMP280;46580;52.114;11.674;2024-03-17T10:26:40;-19479.47;;;9.39
60731;BMP280;46580;52.114;11.674;2024-03-17T10:29:20;-19483.78;;;9.54
60731;BMP280;46580;52.114;11.674;2024-03-17T10:31:46;-19482.19;;;9.48
60731;BMP280;46580;52.114;11.674;2024-03-17T10:34:15;-19476.47;;;9.29
60731;BMP280;46580;52.114;11.674;2024-03-17T10:36:47;-19484.34;;;9.56
60731;BMP280;46580;52.114;11.674;2024-03-17T10:39:26;-19488.34;;;9.69
60731;BMP280;46580;52.114;11.674;2024-03-17T10:42:02;-19497.94;;;10.02
60731;BMP280;46580;52.114;11.674;2024-03-17T10:44:29;-19496.09;;;9.96
60731;BMP280;46580;52.114;11.674;2024-03-17T10:46:56;-19501.53;;;10.14
60731;BMP280;46580;52.114;11.674;2024-03-17T10:49:28;-19507.25;;;10.34
60731;BMP280;46580;52.114;11.674;2024-03-17T10:51:58;-19514.69;;;10.59
60731;BMP280;46580;52.114;11.674;2024-03-17T10:54:24;-19509.25;;;10.40
60731;BMP280;46580;52.114;11.674;2024-03-17T10:56:57;-19500.09;;;10.09
60731;BMP280;46580;52.114;11.674;2024-03-17T10:59:39;-19503.53;;;10.21
60731;BMP280;46580;52.114;11.674;2024-03-17T11:02:28;-19503.25;;;10.20
60731;BMP280;46580;52.114;11.674;2024-03-17T11:05:00;-19510.69;;;10.45
60731;BMP280;46580;52.114;11.674;2024-03-17T11:07:26;-19513.84;;;10.56
60731;BMP280;46580;52.114;11.674;2024-03-17T11:09:55;-19512.84;;;10.53
60731;BMP280;46580;52.114;11.674;2024-03-17T11:12:47;-19519.56;;;10.76
60731;BMP280;46580;52.114;11.674;2024-03-17T11:20:15;-19504.69;;;10.25
60731;BMP280;46580;52.114;11.674;2024-03-17T11:22:42;-19493.50;;;9.87
60731;BMP280;46580;52.114;11.674;2024-03-17T11:27:54;-19509.97;;;10.43
60731;BMP280;46580;52.114;11.674;2024-03-17T11:30:50;-19502.66;;;10.18
60731;BMP280;46580;52.114;11.674;2024-03-17T11:38:51;-19510.25;;;10.44
60731;BMP280;46580;52.114;11.674;2024-03-17T11:41:42;-19518.56;;;10.72
60731;BMP280;46580;52.114;11.674;2024-03-17T11:44:24;-19502.66;;;10.18
60731;BMP280;46580;52.114;11.674;2024-03-17T11:49:23;-19507.53;;;10.35
60731;BMP280;46580;52.114;11.674;2024-03-17T11:51:54;-19508.25;;;10.37
60731;BMP280;46580;52.114;11.674;2024-03-17T11:54:22;-19514.13;;;10.57
60731;BMP280;46580;52.114;11.674;2024-03-17T11:56:51;-19520.00;;;10.77
60731;BMP280;46580;52.114;11.674;2024-03-17T11:59:18;-19526.41;;;10.99
60731;BMP280;46580;52.114;11.674;2024-03-17T12:01:47;-19535.16;;;11.29
60731;BMP280;46580;52.114;11.674;2024-03-17T12:04:17;-19524.41;;;10.92
60731;BMP280;46580;52.114;11.674;2024-03-17T12:06:48;-19524.84;;;10.94
60731;BMP280;46580;52.114;11.674;2024-03-17T12:11:43;-19546.59;;;11.68
60731;BMP280;46580;52.114;11.674;2024-03-17T12:14:19;-19547.03;;;11.69
60731;BMP280;46580;52.114;11.674;2024-03-17T12:16:49;-19537.59;;;11.37
60731;BMP280;46580;52.114;11.674;2024-03-17T12:19:16;-19529.84;;;11.11
60731;BMP280;46580;52.114;11.674;2024-03-17T12:21:52;-19546.16;;;11.66
60731;BMP280;46580;52.114;11.674;2024-03-17T12:24:24;-19545.31;;;11.63
60731;BMP280;46580;52.114;11.674;2024-03-17T12:26:50;-19557.03;;;12.03
60731;BMP280;46580;52.114;11.674;2024-03-17T12:29:36;-19548.44;;;11.74
60731;BMP280;46580;52.114;11.674;2024-03-17T12:32:03;-19539.31;;;11.43
60731;BMP280;46580;52.114;11.674;2024-03-17T12:34:32;-19543.16;;;11.56
60731;BMP280;46580;52.114;11.674;2024-03-17T12:36:58;-19557.59;;;12.05
60731;BMP280;46580;52.114;11.674;2024-03-17T12:39:31;-19554.88;;;11.96
60731;BMP280;46580;52.114;11.674;2024-03-17T12:42:10;-19563.88;;;12.26
60731;BMP280;46580;52.114;11.674;2024-03-17T12:44:38;-19560.47;;;12.15
60731;BMP280;46580;52.114;11.674;2024-03-17T12:47:16;-19564.16;;;12.27
60731;BMP280;46580;52.114;11.674;2024-03-17T12:49:51;-19580.19;;;12.82
60731;BMP280;46580;52.114;11.674;2024-03-17T12:52:19;-19572.16;;;12.55
60731;BMP280;46580;52.114;11.674;2024-03-17T12:54:55;-19583.19;;;12.92
60731;BMP280;46580;52.114;11.674;2024-03-17T12:57:41;-19574.75;;;12.64
60731;BMP280;46580;52.114;11.674;2024-03-17T13:00:25;-19587.88;;;13.08
60731;BMP280;46580;52.114;11.674;2024-03-17T13:03:06;-19597.88;;;13.42
60731;BMP280;46580;52.114;11.674;2024-03-17T13:05:35;-19597.88;;;13.42
60731;BMP280;46580;52.114;11.674;2024-03-17T13:08:01;-19586.19;;;13.02
60731;BMP280;46580;52.114;11.674;2024-03-17T13:10:28;-19583.88;;;12.95
60731;BMP280;46580;52.114;11.674;2024-03-17T13:13:04;-19560.75;;;12.16
60731;BMP280;46580;52.114;11.674;2024-03-17T13:15:31;-19555.88;;;11.99
60731;BMP280;46580;52.114;11.674;2024-03-17T13:17:58;-19546.31;;;11.67
60731;BMP280;46580;52.114;11.674;2024-03-17T13:20:23;-19570.03;;;12.47
60731;BMP280;46580;52.114;11.674;2024-03-17T13:22:54;-19586.75;;;13.04
60731;BMP280;46580;52.114;11.674;2024-03-17T13:25:21;-19591.88;;;13.22
60731;BMP280;46580;52.114;11.674;2024-03-17T13:27:50;-19593.47;;;13.27
60731;BMP280;46580;52.114;11.674;2024-03-17T13:30:17;-19583.31;;;12.93
60731;BMP280;46580;52.114;11.674;2024-03-17T13:32:43;-19597.75;;;13.42
60731;BMP280;46580;52.114;11.674;2024-03-17T13:35:19;-19607.59;;;13.75
60731;BMP280;46580;52.114;11.674;2024-03-17T13:37:49;-19588.47;;;13.10
60731;BMP280;46580;52.114;11.674;2024-03-17T13:40:17;-19585.19;;;12.99
60731;BMP280;46580;52.114;11.674;2024-03-17T13:42:46;-19589.31;;;13.13
60731;BMP280;46580;52.114;11.674;2024-03-17T13:45:15;-19591.03;;;13.19
60731;BMP280;46580;52.114;11.674;2024-03-17T13:47:43;-19571.19;;;12.51
60731;BMP280;46580;52.114;11.674;2024-03-17T13:50:10;-19567.31;;;12.38
60731;BMP280;46580;52.114;11.674;2024-03-17T13:52:40;-19568.59;;;12.43
60731;BMP280;46580;52.114;11.674;2024-03-17T13:55:08;-19565.88;;;12.33
60731;BMP280;46580;52.114;11.674;2024-03-17T13:57:37;-19578.19;;;12.75
60731;BMP280;46580;52.114;11.674;2024-03-17T14:00:03;-19580.03;;;12.82
60731;BMP280;46580;52.114;11.674;2024-03-17T14:02:32;-19578.59;;;12.77
60731;BMP280;46580;52.114;11.674;2024-03-17T14:04:57;-19572.88;;;12.57
60731;BMP280;46580;52.114;11.674;2024-03-17T14:07:24;-19585.31;;;13.00
60731;BMP280;46580;52.114;11.674;2024-03-17T14:09:51;-19580.47;;;12.83
60731;BMP280;46580;52.114;11.674;2024-03-17T14:12:16;-19579.88;;;12.81
60731;BMP280;46580;52.114;11.674;2024-03-17T14:14:42;-19588.91;;;13.12
60731;BMP280;46580;52.114;11.674;2024-03-17T14:17:08;-19565.47;;;12.32
60731;BMP280;46580;52.114;11.674;2024-03-17T14:19:34;-19563.03;;;12.24
60731;BMP280;46580;52.114;11.674;2024-03-17T14:21:59;-19569.88;;;12.47